sensor_id;sensor_type;location;lat;lon;timestamp;P1;durP1;ratioP1;P2;durP2;ratioP2
75645;SDS011;64237;52.438;13.240;2023-01-20T00:01:22;10.13;;;4.28;;
75645;SDS011;64237;52.438;13.240;2023-01-20T00:03:48;13.35;;;5.07;;
75645;SDS011;64237;52.438;13.240;2023-01-20T00:06:14;11.30;;;4.70;;
75645;SDS011;64237;52.438;13.240;2023-01-20T00:08:40;16.00;;;4.93;;
75645;SDS011;64237;52.438;13.240;2023-01-20T00:11:07;12.70;;;5.43;;
75645;SDS011;64237;52.438;13.240;2023-01-20T00:13:34;14.57;;;4.95;;
75645;SDS011;64237;52.438;13.240;2023-01-20T00:16:01;12.85;;;5.15;;
75645;SDS011;64237;52.438;13.240;2023-01-20T00:18:28;16.13;;;4.65;;
75645;SDS011;64237;52.438;13.240;2023-01-20T00:20:53;16.20;;;4.88;;
75645;SDS011;64237;52.438;13.240;2023-01-20T00:23:19;17.70;;;5.10;;
75645;SDS011;64237;52.438;13.240;2023-01-20T00:25:44;14.03;;;5.13;;
75645;SDS011;64237;52.438;13.240;2023-01-20T00:28:09;11.23;;;4.53;;
75645;SDS011;64237;52.438;13.240;2023-01-20T00:30:35;13.37;;;5.00;;
75645;SDS011;64237;52.438;13.240;2023-01-20T00:33:00;14.73;;;5.00;;
75645;SDS011;64237;52.438;13.240;2023-01-20T00:35:25;13.77;;;5.03;;
75645;SDS011;64237;52.438;13.240;2023-01-20T00:37:51;12.00;;;4.83;;
75645;SDS011;64237;52.438;13.240;2023-01-20T00:40:16;12.20;;;4.90;;
75645;SDS011;64237;52.438;13.240;2023-01-20T00:42:41;15.57;;;4.78;;
75645;SDS011;64237;52.438;13.240;2023-01-20T00:45:07;13.95;;;4.85;;
75645;SDS011;64237;52.438;13.240;2023-01-20T00:47:32;14.40;;;5.10;;
75645;SDS011;64237;52.438;13.240;2023-01-20T00:49:57;13.87;;;4.63;;
75645;SDS011;64237;52.438;13.240;2023-01-20T00:52:23;14.27;;;5.10;;
75645;SDS011;64237;52.438;13.240;2023-01-20T00:54:48;13.00;;;4.80;;
75645;SDS011;64237;52.438;13.240;2023-01-20T00:57:13;16.10;;;5.10;;
75645;SDS011;64237;52.438;13.240;2023-01-20T00:59:39;13.90;;;5.03;;
75645;SDS011;64237;52.438;13.240;2023-01-20T01:02:04;14.52;;;5.40;;
75645;SDS011;64237;52.438;13.240;2023-01-20T01:04:29;13.30;;;5.07;;
75645;SDS011;64237;52.438;13.240;2023-01-20T01:06:55;15.68;;;5.60;;
75645;SDS011;64237;52.438;13.240;2023-01-20T01:09:20;16.25;;;5.57;;
75645;SDS011;64237;52.438;13.240;2023-01-20T01:11:49;16.73;;;5.30;;
75645;SDS011;64237;52.438;13.240;2023-01-20T01:14:14;14.40;;;5.00;;
75645;SDS011;64237;52.438;13.240;2023-01-20T01:16:40;14.20;;;4.82;;
75645;SDS011;64237;52.438;13.240;2023-01-20T01:19:05;15.50;;;4.75;;
75645;SDS011;64237;52.438;13.240;2023-01-20T01:21:31;12.82;;;4.57;;
75645;SDS011;64237;52.438;13.240;2023-01-20T01:23:56;15.13;;;5.30;;
75645;SDS011;64237;52.438;13.240;2023-01-20T01:26:21;13.55;;;4.68;;
75645;SDS011;64237;52.438;13.240;2023-01-20T01:28:47;9.88;;;4.55;;
75645;SDS011;64237;52.438;13.240;2023-01-20T01:31:13;12.73;;;4.32;;
75645;SDS011;64237;52.438;13.240;2023-01-20T01:33:40;17.13;;;4.50;;
75645;SDS011;64237;52.438;13.240;2023-01-20T01:36:06;12.45;;;4.32;;
75645;SDS011;64237;52.438;13.240;2023-01-20T01:38:33;12.18;;;4.35;;
75645;SDS011;64237;52.438;13.240;2023-01-20T01:40:59;13.68;;;5.25;;
75645;SDS011;64237;52.438;13.240;2023-01-20T01:43:29;11.63;;;4.20;;
75645;SDS011;64237;52.438;13.240;2023-01-20T01:45:59;10.75;;;4.50;;
75645;SDS011;64237;52.438;13.240;2023-01-20T01:48:26;12.88;;;4.28;;
75645;SDS011;64237;52.438;13.240;2023-01-20T01:53:25;10.88;;;4.50;;
75645;SDS011;64237;52.438;13.240;2023-01-20T01:55:55;13.65;;;4.88;;
75645;SDS011;64237;52.438;13.240;2023-01-20T01:58:25;16.67;;;5.78;;
75645;SDS011;64237;52.438;13.240;2023-01-20T02:00:53;11.63;;;4.43;;
75645;SDS011;64237;52.438;13.240;2023-01-20T02:03:19;16.55;;;5.15;;
75645;SDS011;64237;52.438;13.240;2023-01-20T02:05:45;13.68;;;4.95;;
75645;SDS011;64237;52.438;13.240;2023-01-20T02:08:12;14.52;;;4.68;;
75645;SDS011;64237;52.438;13.240;2023-01-20T02:10:37;14.57;;;4.60;;
75645;SDS011;64237;52.438;13.240;2023-01-20T02:13:03;16.05;;;5.10;;
75645;SDS011;64237;52.438;13.240;2023-01-20T02:15:31;12.07;;;4.82;;
75645;SDS011;64237;52.438;13.240;2023-01-20T02:18:16;12.07;;;5.10;;
75645;SDS011;64237;52.438;13.240;2023-01-20T02:27:13;18.25;;;5.00;;
75645;SDS011;64237;52.438;13.240;2023-01-20T02:32:17;15.90;;;5.57;;
75645;SDS011;64237;52.438;13.240;2023-01-20T02:37:38;17.27;;;5.47;;
75645;SDS011;64237;52.438;13.240;2023-01-20T02:40:11;14.68;;;4.93;;
75645;SDS011;64237;52.438;13.240;2023-01-20T02:42:44;16.23;;;6.18;;
75645;SDS011;64237;52.438;13.240;2023-01-20T02:47:55;18.25;;;5.90;;
75645;SDS011;64237;52.438;13.240;2023-01-20T02:50:31;16.73;;;5.80;;
75645;SDS011;64237;52.438;13.240;2023-01-20T02:53:07;20.52;;;5.90;;
75645;SDS011;64237;52.438;13.240;2023-01-20T02:55:37;16.80;;;6.30;;
75645;SDS011;64237;52.438;13.240;2023-01-20T02:58:07;15.57;;;5.93;;
75645;SDS011;64237;52.438;13.240;2023-01-20T03:00:39;20.60;;;6.47;;
75645;SDS011;64237;52.438;13.240;2023-01-20T03:03:12;16.10;;;5.70;;
75645;SDS011;64237;52.438;13.240;2023-01-20T03:05:44;16.92;;;6.50;;
75645;SDS011;64237;52.438;13.240;2023-01-20T03:08:18;18.25;;;5.55;;
75645;SDS011;64237;52.438;13.240;2023-01-20T03:10:48;13.88;;;4.63;;
75645;SDS011;64237;52.438;13.240;2023-01-20T03:13:21;17.25;;;5.93;;
75645;SDS011;64237;52.438;13.240;2023-01-20T03:16:09;18.95;;;6.05;;
75645;SDS011;64237;52.438;13.240;2023-01-20T03:18:38;18.52;;;6.13;;
75645;SDS011;64237;52.438;13.240;2023-01-20T03:21:04;17.40;;;5.97;;
75645;SDS011;64237;52.438;13.240;2023-01-20T03:23:33;14.93;;;5.97;;
75645;SDS011;64237;52.438;13.240;2023-01-20T03:26:01;16.88;;;6.32;;
75645;SDS011;64237;52.438;13.240;2023-01-20T03:28:31;16.05;;;6.18;;
75645;SDS011;64237;52.438;13.240;2023-01-20T03:30:56;17.27;;;6.75;;
75645;SDS011;64237;52.438;13.240;2023-01-20T03:33:23;20.13;;;7.18;;
75645;SDS011;64237;52.438;13.240;2023-01-20T03:35:49;25.23;;;7.50;;
75645;SDS011;64237;52.438;13.240;2023-01-20T03:38:15;19.20;;;6.88;;
75645;SDS011;64237;52.438;13.240;2023-01-20T03:40:42;19.58;;;7.15;;
75645;SDS011;64237;52.438;13.240;2023-01-20T03:43:19;20.60;;;6.63;;
75645;SDS011;64237;52.438;13.240;2023-01-20T03:46:00;16.00;;;6.45;;
75645;SDS011;64237;52.438;13.240;2023-01-20T03:51:22;17.92;;;6.47;;
75645;SDS011;64237;52.438;13.240;2023-01-20T03:54:07;24.98;;;6.72;;
75645;SDS011;64237;52.438;13.240;2023-01-20T03:56:38;18.08;;;7.03;;
75645;SDS011;64237;52.438;13.240;2023-01-20T03:59:08;22.80;;;7.15;;
75645;SDS011;64237;52.438;13.240;2023-01-20T04:01:38;21.63;;;7.53;;
75645;SDS011;64237;52.438;13.240;2023-01-20T04:04:09;21.55;;;8.10;;
75645;SDS011;64237;52.438;13.240;2023-01-20T04:06:39;24.52;;;8.00;;
75645;SDS011;64237;52.438;13.240;2023-01-20T04:09:08;22.13;;;7.05;;
75645;SDS011;64237;52.438;13.240;2023-01-20T04:11:36;22.40;;;7.45;;
75645;SDS011;64237;52.438;13.240;2023-01-20T04:14:02;19.92;;;7.72;;
75645;SDS011;64237;52.438;13.240;2023-01-20T04:16:27;23.83;;;7.72;;
75645;SDS011;64237;52.438;13.240;2023-01-20T04:18:53;17.27;;;7.07;;
75645;SDS011;64237;52.438;13.240;2023-01-20T04:21:21;19.85;;;7.97;;
75645;SDS011;64237;52.438;13.240;2023-01-20T04:24:00;19.08;;;8.50;;
75645;SDS011;64237;52.438;13.240;2023-01-20T04:26:32;20.85;;;7.45;;
75645;SDS011;64237;52.438;13.240;2023-01-20T04:28:58;21.65;;;7.47;;
75645;SDS011;64237;52.438;13.240;2023-01-20T04:31:23;24.02;;;9.10;;
75645;SDS011;64237;52.438;13.240;2023-01-20T04:33:48;21.50;;;8.32;;
75645;SDS011;64237;52.438;13.240;2023-01-20T04:36:14;19.08;;;7.68;;
75645;SDS011;64237;52.438;13.240;2023-01-20T04:38:39;20.52;;;7.32;;
75645;SDS011;64237;52.438;13.240;2023-01-20T04:41:05;20.50;;;6.97;;
75645;SDS011;64237;52.438;13.240;2023-01-20T04:43:30;18.42;;;7.15;;
75645;SDS011;64237;52.438;13.240;2023-01-20T04:45:56;19.48;;;7.53;;
75645;SDS011;64237;52.438;13.240;2023-01-20T04:48:21;23.77;;;8.10;;
75645;SDS011;64237;52.438;13.240;2023-01-20T04:50:46;23.45;;;8.23;;
75645;SDS011;64237;52.438;13.240;2023-01-20T04:53:12;20.33;;;7.68;;
75645;SDS011;64237;52.438;13.240;2023-01-20T04:55:41;26.67;;;8.45;;
75645;SDS011;64237;52.438;13.240;2023-01-20T04:58:08;20.15;;;7.95;;
75645;SDS011;64237;52.438;13.240;2023-01-20T05:00:34;21.13;;;8.50;;
75645;SDS011;64237;52.438;13.240;2023-01-20T05:02:59;19.50;;;7.57;;
75645;SDS011;64237;52.438;13.240;2023-01-20T05:05:27;26.92;;;8.13;;
75645;SDS011;64237;52.438;13.240;2023-01-20T05:07:52;22.90;;;7.90;;
75645;SDS011;64237;52.438;13.240;2023-01-20T05:10:19;22.52;;;7.72;;
75645;SDS011;64237;52.438;13.240;2023-01-20T05:12:45;20.42;;;7.15;;
75645;SDS011;64237;52.438;13.240;2023-01-20T05:15:11;24.55;;;7.90;;
75645;SDS011;64237;52.438;13.240;2023-01-20T05:17:36;20.20;;;7.55;;
75645;SDS011;64237;52.438;13.240;2023-01-20T05:20:01;24.73;;;8.27;;
75645;SDS011;64237;52.438;13.240;2023-01-20T05:22:27;19.17;;;7.40;;
75645;SDS011;64237;52.438;13.240;2023-01-20T05:24:53;22.05;;;7.70;;
75645;SDS011;64237;52.438;13.240;2023-01-20T05:27:19;18.85;;;7.75;;
75645;SDS011;64237;52.438;13.240;2023-01-20T05:29:44;18.50;;;7.40;;
75645;SDS011;64237;52.438;13.240;2023-01-20T05:32:09;21.80;;;8.60;;
75645;SDS011;64237;52.438;13.240;2023-01-20T05:34:35;23.80;;;7.63;;
75645;SDS011;64237;52.438;13.240;2023-01-20T05:37:00;21.83;;;7.85;;
75645;SDS011;64237;52.438;13.240;2023-01-20T05:39:26;24.13;;;7.65;;
75645;SDS011;64237;52.438;13.240;2023-01-20T05:41:51;21.02;;;7.72;;
75645;SDS011;64237;52.438;13.240;2023-01-20T05:44:16;21.33;;;7.10;;
75645;SDS011;64237;52.438;13.240;2023-01-20T05:46:42;22.25;;;7.95;;
75645;SDS011;64237;52.438;13.240;2023-01-20T05:49:08;20.35;;;7.53;;
75645;SDS011;64237;52.438;13.240;2023-01-20T05:51:36;23.38;;;8.25;;
75645;SDS011;64237;52.438;13.240;2023-01-20T05:54:01;21.13;;;7.30;;
75645;SDS011;64237;52.438;13.240;2023-01-20T05:56:26;26.45;;;8.35;;
75645;SDS011;64237;52.438;13.240;2023-01-20T05:58:55;22.98;;;7.65;;
75645;SDS011;64237;52.438;13.240;2023-01-20T06:01:20;25.50;;;7.78;;
75645;SDS011;64237;52.438;13.240;2023-01-20T06:03:46;21.17;;;8.20;;
75645;SDS011;64237;52.438;13.240;2023-01-20T06:06:13;23.30;;;8.63;;
75645;SDS011;64237;52.438;13.240;2023-01-20T06:08:39;23.92;;;8.05;;
75645;SDS011;64237;52.438;13.240;2023-01-20T06:11:05;23.70;;;8.48;;
75645;SDS011;64237;52.438;13.240;2023-01-20T06:13:31;26.60;;;9.63;;
75645;SDS011;64237;52.438;13.240;2023-01-20T06:15:56;25.75;;;8.45;;
75645;SDS011;64237;52.438;13.240;2023-01-20T06:18:22;22.27;;;7.28;;
75645;SDS011;64237;52.438;13.240;2023-01-20T06:20:48;22.48;;;8.40;;
75645;SDS011;64237;52.438;13.240;2023-01-20T06:23:14;21.00;;;7.85;;
75645;SDS011;64237;52.438;13.240;2023-01-20T06:25:40;21.67;;;6.95;;
75645;SDS011;64237;52.438;13.240;2023-01-20T06:28:06;22.88;;;8.00;;
75645;SDS011;64237;52.438;13.240;2023-01-20T06:30:33;22.85;;;8.15;;
75645;SDS011;64237;52.438;13.240;2023-01-20T06:32:59;23.00;;;7.95;;
75645;SDS011;64237;52.438;13.240;2023-01-20T06:35:24;27.13;;;8.52;;
75645;SDS011;64237;52.438;13.240;2023-01-20T06:37:50;25.05;;;9.13;;
75645;SDS011;64237;52.438;13.240;2023-01-20T06:40:16;23.67;;;8.85;;
75645;SDS011;64237;52.438;13.240;2023-01-20T06:42:41;25.17;;;8.13;;
75645;SDS011;64237;52.438;13.240;2023-01-20T06:45:07;22.75;;;8.50;;
75645;SDS011;64237;52.438;13.240;2023-01-20T06:47:33;25.40;;;7.88;;
75645;SDS011;64237;52.438;13.240;2023-01-20T06:49:58;23.23;;;7.85;;
75645;SDS011;64237;52.438;13.240;2023-01-20T06:52:24;24.15;;;8.40;;
75645;SDS011;64237;52.438;13.240;2023-01-20T06:54:49;26.50;;;9.43;;
75645;SDS011;64237;52.438;13.240;2023-01-20T06:57:15;29.73;;;8.52;;
75645;SDS011;64237;52.438;13.240;2023-01-20T06:59:40;27.92;;;8.95;;
75645;SDS011;64237;52.438;13.240;2023-01-20T07:02:05;24.17;;;9.25;;
75645;SDS011;64237;52.438;13.240;2023-01-20T07:04:33;27.80;;;8.73;;
75645;SDS011;64237;52.438;13.240;2023-01-20T07:06:59;25.05;;;8.77;;
75645;SDS011;64237;52.438;13.240;2023-01-20T07:09:24;26.33;;;9.07;;
75645;SDS011;64237;52.438;13.240;2023-01-20T07:11:50;26.83;;;8.77;;
75645;SDS011;64237;52.438;13.240;2023-01-20T07:14:15;28.48;;;9.88;;
75645;SDS011;64237;52.438;13.240;2023-01-20T07:16:40;25.00;;;8.27;;
75645;SDS011;64237;52.438;13.240;2023-01-20T07:19:06;30.85;;;9.32;;
75645;SDS011;64237;52.438;13.240;2023-01-20T07:21:31;26.88;;;9.45;;
75645;SDS011;64237;52.438;13.240;2023-01-20T07:24:00;24.98;;;8.98;;
75645;SDS011;64237;52.438;13.240;2023-01-20T07:26:26;25.90;;;8.57;;
75645;SDS011;64237;52.438;13.240;2023-01-20T07:28:51;26.92;;;8.63;;
75645;SDS011;64237;52.438;13.240;2023-01-20T07:31:18;31.00;;;9.27;;
75645;SDS011;64237;52.438;13.240;2023-01-20T07:33:48;28.90;;;9.05;;
75645;SDS011;64237;52.438;13.240;2023-01-20T07:36:14;28.63;;;9.50;;
75645;SDS011;64237;52.438;13.240;2023-01-20T07:38:40;27.00;;;9.27;;
75645;SDS011;64237;52.438;13.240;2023-01-20T07:41:07;28.65;;;9.13;;
75645;SDS011;64237;52.438;13.240;2023-01-20T07:43:35;28.30;;;8.68;;
75645;SDS011;64237;52.438;13.240;2023-01-20T07:46:02;29.05;;;9.77;;
75645;SDS011;64237;52.438;13.240;2023-01-20T07:48:29;26.83;;;9.27;;
75645;SDS011;64237;52.438;13.240;2023-01-20T07:50:56;28.02;;;9.77;;
75645;SDS011;64237;52.438;13.240;2023-01-20T07:53:36;29.58;;;9.68;;
75645;SDS011;64237;52.438;13.240;2023-01-20T07:56:05;28.30;;;9.25;;
75645;SDS011;64237;52.438;13.240;2023-01-20T07:58:32;24.67;;;8.82;;
75645;SDS011;64237;52.438;13.240;2023-01-20T08:01:08;32.17;;;9.23;;
75645;SDS011;64237;52.438;13.240;2023-01-20T08:03:36;30.60;;;9.48;;
75645;SDS011;64237;52.438;13.240;2023-01-20T08:06:02;34.00;;;8.93;;
75645;SDS011;64237;52.438;13.240;2023-01-20T08:08:29;23.90;;;8.90;;
75645;SDS011;64237;52.438;13.240;2023-01-20T08:10:56;30.67;;;9.05;;
75645;SDS011;64237;52.438;13.240;2023-01-20T08:13:22;23.50;;;9.32;;
75645;SDS011;64237;52.438;13.240;2023-01-20T08:15:47;26.15;;;8.57;;
75645;SDS011;64237;52.438;13.240;2023-01-20T08:18:13;25.73;;;8.93;;
75645;SDS011;64237;52.438;13.240;2023-01-20T08:20:38;25.65;;;8.95;;
75645;SDS011;64237;52.438;13.240;2023-01-20T08:23:04;29.10;;;9.02;;
75645;SDS011;64237;52.438;13.240;2023-01-20T08:25:30;27.02;;;9.32;;
75645;SDS011;64237;52.438;13.240;2023-01-20T08:27:55;25.75;;;8.80;;
75645;SDS011;64237;52.438;13.240;2023-01-20T08:30:21;24.08;;;7.97;;
75645;SDS011;64237;52.438;13.240;2023-01-20T08:32:46;28.42;;;10.57;;
75645;SDS011;64237;52.438;13.240;2023-01-20T08:35:11;28.90;;;10.82;;
75645;SDS011;64237;52.438;13.240;2023-01-20T08:37:37;25.38;;;9.40;;
75645;SDS011;64237;52.438;13.240;2023-01-20T08:40:04;28.77;;;9.32;;
75645;SDS011;64237;52.438;13.240;2023-01-20T08:42:34;23.30;;;8.00;;
75645;SDS011;64237;52.438;13.240;2023-01-20T08:45:00;26.65;;;9.05;;
75645;SDS011;64237;52.438;13.240;2023-01-20T08:47:26;26.83;;;8.63;;
75645;SDS011;64237;52.438;13.240;2023-01-20T08:49:52;33.17;;;9.88;;
75645;SDS011;64237;52.438;13.240;2023-01-20T08:52:18;26.17;;;9.02;;
75645;SDS011;64237;52.438;13.240;2023-01-20T08:54:43;24.35;;;9.30;;
75645;SDS011;64237;52.438;13.240;2023-01-20T08:57:09;29.02;;;9.27;;
75645;SDS011;64237;52.438;13.240;2023-01-20T08:59:34;24.85;;;8.77;;
75645;SDS011;64237;52.438;13.240;2023-01-20T09:02:00;27.60;;;8.57;;
75645;SDS011;64237;52.438;13.240;2023-01-20T09:04:25;24.58;;;8.20;;
75645;SDS011;64237;52.438;13.240;2023-01-20T09:06:50;22.67;;;8.57;;
75645;SDS011;64237;52.438;13.240;2023-01-20T09:09:17;26.42;;;9.10;;
75645;SDS011;64237;52.438;13.240;2023-01-20T09:11:45;30.02;;;9.07;;
75645;SDS011;64237;52.438;13.240;2023-01-20T09:14:15;27.95;;;10.05;;
75645;SDS011;64237;52.438;13.240;2023-01-20T09:16:41;20.85;;;7.63;;
75645;SDS011;64237;52.438;13.240;2023-01-20T09:19:07;28.10;;;8.95;;
75645;SDS011;64237;52.438;13.240;2023-01-20T09:21:32;26.15;;;9.05;;
75645;SDS011;64237;52.438;13.240;2023-01-20T09:23:58;28.77;;;8.82;;
75645;SDS011;64237;52.438;13.240;2023-01-20T09:26:24;22.73;;;8.43;;
75645;SDS011;64237;52.438;13.240;2023-01-20T09:28:49;26.13;;;9.38;;
75645;SDS011;64237;52.438;13.240;2023-01-20T09:31:14;23.88;;;8.20;;
75645;SDS011;64237;52.438;13.240;2023-01-20T09:33:40;29.58;;;8.68;;
75645;SDS011;64237;52.438;13.240;2023-01-20T09:36:06;26.25;;;9.25;;
75645;SDS011;64237;52.438;13.240;2023-01-20T09:38:33;23.85;;;9.10;;
75645;SDS011;64237;52.438;13.240;2023-01-20T09:41:30;24.45;;;8.45;;
75645;SDS011;64237;52.438;13.240;2023-01-20T09:55:56;26.73;;;9.40;;
75645;SDS011;64237;52.438;13.240;2023-01-20T09:58:43;21.63;;;7.88;;
75645;SDS011;64237;52.438;13.240;2023-01-20T10:03:55;20.23;;;7.53;;
75645;SDS011;64237;52.438;13.240;2023-01-20T10:06:36;29.08;;;8.02;;
75645;SDS011;64237;52.438;13.240;2023-01-20T10:09:12;28.67;;;8.05;;
75645;SDS011;64237;52.438;13.240;2023-01-20T10:11:48;23.35;;;8.85;;
75645;SDS011;64237;52.438;13.240;2023-01-20T10:14:24;23.33;;;8.65;;
75645;SDS011;64237;52.438;13.240;2023-01-20T10:22:24;23.25;;;7.97;;
75645;SDS011;64237;52.438;13.240;2023-01-20T10:24:57;22.77;;;9.07;;
75645;SDS011;64237;52.438;13.240;2023-01-20T10:27:30;26.02;;;8.15;;
75645;SDS011;64237;52.438;13.240;2023-01-20T10:29:58;25.80;;;9.13;;
75645;SDS011;64237;52.438;13.240;2023-01-20T10:32:32;23.85;;;8.60;;
75645;SDS011;64237;52.438;13.240;2023-01-20T10:35:12;24.73;;;8.52;;
75645;SDS011;64237;52.438;13.240;2023-01-20T10:37:42;27.73;;;8.27;;
75645;SDS011;64237;52.438;13.240;2023-01-20T10:42:41;22.27;;;7.45;;
75645;SDS011;64237;52.438;13.240;2023-01-20T10:45:17;23.90;;;8.30;;
75645;SDS011;64237;52.438;13.240;2023-01-20T10:47:53;20.55;;;7.80;;
75645;SDS011;64237;52.438;13.240;2023-01-20T10:50:53;16.52;;;6.72;;
75645;SDS011;64237;52.438;13.240;2023-01-20T10:53:20;22.50;;;8.43;;
75645;SDS011;64237;52.438;13.240;2023-01-20T10:56:03;22.35;;;8.02;;
75645;SDS011;64237;52.438;13.240;2023-01-20T10:58:36;21.73;;;7.65;;
75645;SDS011;64237;52.438;13.240;2023-01-20T11:01:06;22.92;;;8.02;;
75645;SDS011;64237;52.438;13.240;2023-01-20T11:03:36;26.23;;;7.63;;
75645;SDS011;64237;52.438;13.240;2023-01-20T11:06:05;22.92;;;8.18;;
75645;SDS011;64237;52.438;13.240;2023-01-20T11:08:30;21.27;;;8.05;;
75645;SDS011;64237;52.438;13.240;2023-01-20T11:10:57;24.60;;;7.93;;
75645;SDS011;64237;52.438;13.240;2023-01-20T11:13:25;23.88;;;9.00;;
75645;SDS011;64237;52.438;13.240;2023-01-20T11:15:52;24.27;;;8.63;;
75645;SDS011;64237;52.438;13.240;2023-01-20T11:18:21;23.20;;;8.13;;
75645;SDS011;64237;52.438;13.240;2023-01-20T11:20:55;24.70;;;8.27;;
75645;SDS011;64237;52.438;13.240;2023-01-20T11:23:23;19.88;;;8.07;;
75645;SDS011;64237;52.438;13.240;2023-01-20T11:25:56;22.90;;;8.52;;
75645;SDS011;64237;52.438;13.240;2023-01-20T11:28:28;21.83;;;7.97;;
75645;SDS011;64237;52.438;13.240;2023-01-20T11:31:00;20.58;;;7.90;;
75645;SDS011;64237;52.438;13.240;2023-01-20T11:33:28;38.17;;;8.43;;
75645;SDS011;64237;52.438;13.240;2023-01-20T11:38:27;20.75;;;7.97;;
75645;SDS011;64237;52.438;13.240;2023-01-20T11:40:55;20.85;;;7.43;;
75645;SDS011;64237;52.438;13.240;2023-01-20T11:48:35;23.48;;;7.70;;
75645;SDS011;64237;52.438;13.240;2023-01-20T11:51:01;18.65;;;6.68;;
75645;SDS011;64237;52.438;13.240;2023-01-20T11:53:28;18.75;;;7.85;;
75645;SDS011;64237;52.438;13.240;2023-01-20T11:56:30;18.63;;;7.55;;
75645;SDS011;64237;52.438;13.240;2023-01-20T11:58:57;22.98;;;8.13;;
75645;SDS011;64237;52.438;13.240;2023-01-20T12:01:27;22.70;;;7.75;;
75645;SDS011;64237;52.438;13.240;2023-01-20T12:06:46;18.95;;;7.43;;
75645;SDS011;64237;52.438;13.240;2023-01-20T12:09:19;27.13;;;8.82;;
75645;SDS011;64237;52.438;13.240;2023-01-20T12:14:33;21.83;;;7.45;;
75645;SDS011;64237;52.438;13.240;2023-01-20T12:17:18;19.67;;;7.20;;
75645;SDS011;64237;52.438;13.240;2023-01-20T12:22:39;21.20;;;7.55;;
75645;SDS011;64237;52.438;13.240;2023-01-20T12:27:47;20.10;;;7.20;;
75645;SDS011;64237;52.438;13.240;2023-01-20T12:30:36;24.00;;;7.47;;
75645;SDS011;64237;52.438;13.240;2023-01-20T12:33:15;22.92;;;8.50;;
75645;SDS011;64237;52.438;13.240;2023-01-20T12:35:45;21.63;;;6.90;;
75645;SDS011;64237;52.438;13.240;2023-01-20T12:38:43;23.20;;;8.07;;
75645;SDS011;64237;52.438;13.240;2023-01-20T12:41:51;17.88;;;7.47;;
75645;SDS011;64237;52.438;13.240;2023-01-20T12:50:17;23.42;;;7.47;;
75645;SDS011;64237;52.438;13.240;2023-01-20T13:01:28;23.85;;;7.30;;
75645;SDS011;64237;52.438;13.240;2023-01-20T13:14:51;22.90;;;7.70;;
75645;SDS011;64237;52.438;13.240;2023-01-20T13:20:30;20.27;;;7.32;;
75645;SDS011;64237;52.438;13.240;2023-01-20T13:22:57;21.02;;;7.75;;
75645;SDS011;64237;52.438;13.240;2023-01-20T13:25:27;24.95;;;7.90;;
75645;SDS011;64237;52.438;13.240;2023-01-20T13:27:52;21.77;;;7.40;;
75645;SDS011;64237;52.438;13.240;2023-01-20T13:30:38;30.45;;;11.52;;
75645;SDS011;64237;52.438;13.240;2023-01-20T13:33:15;24.73;;;8.13;;
75645;SDS011;64237;52.438;13.240;2023-01-20T13:38:49;22.20;;;7.15;;
75645;SDS011;64237;52.438;13.240;2023-01-20T13:41:50;21.05;;;7.03;;
75645;SDS011;64237;52.438;13.240;2023-01-20T13:46:58;19.35;;;7.28;;
75645;SDS011;64237;52.438;13.240;2023-01-20T13:49:24;26.23;;;8.75;;
75645;SDS011;64237;52.438;13.240;2023-01-20T13:51:53;28.02;;;10.05;;
75645;SDS011;64237;52.438;13.240;2023-01-20T13:56:47;25.50;;;9.70;;
75645;SDS011;64237;52.438;13.240;2023-01-20T13:59:15;19.85;;;7.03;;
75645;SDS011;64237;52.438;13.240;2023-01-20T14:01:40;20.23;;;7.28;;
75645;SDS011;64237;52.438;13.240;2023-01-20T14:04:06;22.55;;;6.80;;
75645;SDS011;64237;52.438;13.240;2023-01-20T14:06:45;18.70;;;7.00;;
75645;SDS011;64237;52.438;13.240;2023-01-20T14:09:21;21.42;;;6.88;;
75645;SDS011;64237;52.438;13.240;2023-01-20T14:14:18;24.40;;;6.47;;
75645;SDS011;64237;52.438;13.240;2023-01-20T14:16:47;18.52;;;6.65;;
75645;SDS011;64237;52.438;13.240;2023-01-20T14:22:16;21.13;;;6.22;;
75645;SDS011;64237;52.438;13.240;2023-01-20T14:24:48;21.52;;;7.03;;
75645;SDS011;64237;52.438;13.240;2023-01-20T14:27:22;20.95;;;7.07;;
75645;SDS011;64237;52.438;13.240;2023-01-20T14:29:57;18.65;;;6.47;;
75645;SDS011;64237;52.438;13.240;2023-01-20T14:32:37;22.83;;;8.63;;
75645;SDS011;64237;52.438;13.240;2023-01-20T14:35:23;31.45;;;10.93;;
75645;SDS011;64237;52.438;13.240;2023-01-20T14:37:56;17.90;;;7.10;;
75645;SDS011;64237;52.438;13.240;2023-01-20T14:40:24;20.52;;;7.93;;
75645;SDS011;64237;52.438;13.240;2023-01-20T14:42:59;21.05;;;8.20;;
75645;SDS011;64237;52.438;13.240;2023-01-20T14:45:26;21.73;;;7.40;;
75645;SDS011;64237;52.438;13.240;2023-01-20T14:47:57;21.40;;;8.20;;
75645;SDS011;64237;52.438;13.240;2023-01-20T14:50:25;26.60;;;9.02;;
75645;SDS011;64237;52.438;13.240;2023-01-20T14:52:51;25.73;;;10.02;;
75645;SDS011;64237;52.438;13.240;2023-01-20T14:57:59;25.95;;;8.90;;
75645;SDS011;64237;52.438;13.240;2023-01-20T15:00:31;23.17;;;8.93;;
75645;SDS011;64237;52.438;13.240;2023-01-20T15:03:04;23.33;;;8.13;;
75645;SDS011;64237;52.438;13.240;2023-01-20T15:05:58;27.17;;;7.40;;
75645;SDS011;64237;52.438;13.240;2023-01-20T15:08:40;24.05;;;8.13;;
75645;SDS011;64237;52.438;13.240;2023-01-20T15:16:25;23.58;;;8.63;;
75645;SDS011;64237;52.438;13.240;2023-01-20T15:21:53;24.88;;;7.75;;
75645;SDS011;64237;52.438;13.240;2023-01-20T15:24:27;25.92;;;9.85;;
75645;SDS011;64237;52.438;13.240;2023-01-20T15:26:54;20.92;;;7.57;;
75645;SDS011;64237;52.438;13.240;2023-01-20T15:29:24;21.67;;;7.95;;
75645;SDS011;64237;52.438;13.240;2023-01-20T15:31:53;25.50;;;8.52;;
75645;SDS011;64237;52.438;13.240;2023-01-20T15:34:20;22.42;;;8.27;;
75645;SDS011;64237;52.438;13.240;2023-01-20T15:36:46;24.30;;;9.60;;
75645;SDS011;64237;52.438;13.240;2023-01-20T15:39:13;33.90;;;10.65;;
75645;SDS011;64237;52.438;13.240;2023-01-20T15:41:39;31.50;;;10.68;;
75645;SDS011;64237;52.438;13.240;2023-01-20T15:44:05;30.33;;;12.20;;
75645;SDS011;64237;52.438;13.240;2023-01-20T15:46:30;31.95;;;12.15;;
75645;SDS011;64237;52.438;13.240;2023-01-20T15:48:56;31.85;;;12.23;;
75645;SDS011;64237;52.438;13.240;2023-01-20T15:51:22;36.90;;;13.35;;
75645;SDS011;64237;52.438;13.240;2023-01-20T15:53:47;38.40;;;14.98;;
75645;SDS011;64237;52.438;13.240;2023-01-20T15:58:53;41.53;;;14.10;;
75645;SDS011;64237;52.438;13.240;2023-01-20T16:01:20;34.47;;;12.68;;
75645;SDS011;64237;52.438;13.240;2023-01-20T16:03:52;45.35;;;14.32;;
75645;SDS011;64237;52.438;13.240;2023-01-20T16:06:20;29.88;;;11.95;;
75645;SDS011;64237;52.438;13.240;2023-01-20T16:08:49;26.25;;;10.93;;
75645;SDS011;64237;52.438;13.240;2023-01-20T16:11:15;25.80;;;10.38;;
75645;SDS011;64237;52.438;13.240;2023-01-20T16:13:42;22.05;;;8.13;;
75645;SDS011;64237;52.438;13.240;2023-01-20T16:16:10;23.98;;;9.50;;
75645;SDS011;64237;52.438;13.240;2023-01-20T16:18:38;27.30;;;9.13;;
75645;SDS011;64237;52.438;13.240;2023-01-20T16:21:04;25.08;;;8.55;;
75645;SDS011;64237;52.438;13.240;2023-01-20T16:23:30;26.48;;;9.65;;
75645;SDS011;64237;52.438;13.240;2023-01-20T16:25:56;25.65;;;8.95;;
75645;SDS011;64237;52.438;13.240;2023-01-20T16:28:21;26.08;;;9.35;;